• Join FlightAware (Why Join?)
  • Login
  • US Flag 
08:56PM EDT


 

Airport Tracker/Info


-or-


 

Live Flight TrackerFlight Track Log ✈ AWE3434 ✈ 05-Nov-2013 ✈ KPHL - KCMH

Flight Track Log - Related Links

Times and Time Zones

All times are in EST time to prevent confusion due to time zone crossing. See the AWE3434 flight status page for this flight to view local times or setup timezone preferences in your user account.

Time Position Orientation Groundspeed Altitude Reporting Facility
EST Latitude Longitude Course Direction KTS MPH feet Rate Location/Type
01:56PM 39.8833 -75.2167 270° West 148 170 900  Level Philadelphia TRACON
01:57PM 39.8833 -75.1833 90° East 182 209 2,100 1,980 Climbing Philadelphia TRACON
01:58PM 39.9333 -75.1333 37° Northeast 265 305 4,700 2,760 Climbing Philadelphia TRACON
01:59PM 39.8932 -75.6826 270° West  Level Estimated
01:59PM 39.9500 -75.2167 285° West 263 303 8,000  Level Philadelphia TRACON
02:00PM 39.8981 -75.7931 270° West  Level Estimated
02:01PM 39.9030 -75.9036 270° West  Level Estimated
02:01PM 39.9369 -75.4572 266° West 299 344 10,000  Level New York Center
02:02PM 39.9272 -75.5486 262° West 294 338 10,000 1,320 Level New York Center
02:08PM 39.9080 -76.1670 262° West 338 389 19,000 1,560 Climbing FlightAware
02:08PM 39.9100 -76.2280 272° West 339 390 19,600 1,560 Climbing FlightAware
02:09PM 39.9120 -76.3010 272° West 361 415 20,700 1,860 Climbing FlightAware
02:09PM 39.9140 -76.3520 273° West 345 397 21,500 1,920 Climbing FlightAware
02:10PM 39.9180 -76.4340 274° West 321 369 22,800 1,620 Climbing FlightAware
02:11PM 39.9210 -76.5150 273° West 345 397 23,700 1,200 Climbing FlightAware
02:12PM 39.9270 -76.6520 273° West 340 391 25,000 1,140 Climbing FlightAware
02:13PM 39.9310 -76.7640 273° West 343 395 26,000 1,020 Climbing FlightAware
02:13PM 39.9330 -76.8110 273° West 338 389 26,400 1,080 Climbing FlightAware
02:14PM 39.9380 -76.9500 273° West 344 396 27,700 960 Climbing FlightAware
02:15PM 39.9410 -77.0210 273° West 343 395 28,000 180 Climbing FlightAware
02:15PM 39.9450 -77.1140 273° West 338 389 28,000  Level FlightAware
02:16PM 39.9470 -77.1560 274° West 338 389 28,000  Level FlightAware
02:17PM 39.9540 -77.2810 274° West 338 389 28,000  Level FlightAware
02:18PM 39.9590 -77.3840 274° West 338 389 28,000  Level FlightAware
02:19PM 39.9630 -77.4470 275° West 338 389 28,000  Level FlightAware
02:19PM 39.9640 -77.4670 274° West 338 389 28,000  Level FlightAware
02:20PM 39.9633 -77.7097 274° West 335 386 28,000  Level Cleveland Center
02:21PM 39.9669 -77.8317 272° West 336 387 28,000  Level Cleveland Center
02:22PM 39.9697 -77.9539 272° West 336 387 28,000  Level Cleveland Center
02:23PM 39.9739 -78.0731 273° West 332 382 28,000  Level Cleveland Center
02:24PM 39.9772 -78.1964 272° West 338 389 28,000  Level Cleveland Center
02:25PM 39.9808 -78.3456 272° West 347 399 28,000  Level Cleveland Center
02:26PM 39.9844 -78.4689 272° West 344 396 28,000  Level Cleveland Center
02:27PM 39.9872 -78.5914 272° West 341 392 28,000  Level Cleveland Center
02:28PM 39.9900 -78.7139 272° West 339 390 28,000  Level Cleveland Center
02:29PM 39.9942 -78.8369 273° West 340 391 28,000  Level Cleveland Center
02:30PM 39.9953 -78.9719 271° West 339 390 28,000  Level Cleveland Center
02:31PM 39.9989 -79.0950 272° West 341 392 28,000  Level Cleveland Center
02:32PM 40.0006 -79.2158 271° West 338 389 28,000  Level Cleveland Center
02:33PM 40.0031 -79.3356 272° West 334 384 28,000  Level Cleveland Center
02:34PM 40.0061 -79.4825 272° West 340 391 28,000  Level Cleveland Center
02:35PM 40.0083 -79.6044 271° West 339 390 28,000  Level Cleveland Center
02:36PM 40.0094 -79.7267 271° West 339 390 28,000  Level Cleveland Center
02:38PM 40.0111 -79.8528 271° West 348 400 28,000  Level Cleveland Center
02:39PM 40.0128 -79.9753 271° West 340 391 28,000  Level Cleveland Center
02:40PM 40.0144 -80.1019 271° West 347 399 28,000 -180 Level Cleveland Center
02:41PM 40.0147 -80.2508 270° West 342 394 27,700 -720 Descending Cleveland Center
02:42PM 40.0161 -80.3764 271° West 345 397 26,600 -1,020 Descending Cleveland Center
02:43PM 40.0161 -80.5031 270° West 348 400 25,600 -1,020 Descending Cleveland Center
02:44PM 40.0172 -80.6244 271° West 337 388 24,600 -1,020 Descending Cleveland Center
02:45PM 40.0175 -80.7453 270° West 334 384 23,500 -1,260 Descending Cleveland Center
02:46PM 40.0072 -80.8653 264° West 343 395 22,000 -1,500 Descending Cleveland Center
02:47PM 39.9847 -80.9831 256° West 333 383 20,500 -1,500 Descending Indianapolis Center
02:48PM 39.9619 -81.1019 256° West 334 384 19,000 -1,260 Descending Indianapolis Center
02:49PM 39.9392 -81.2181 256° West 328 377 18,000 -1,380 Descending Indianapolis Center
02:50PM 39.9133 -81.3506 256° West 317 365 16,200 -1,560 Descending Indianapolis Center
02:51PM 39.8950 -81.4444 256° West 301 346 14,800 -1,440 Descending Indianapolis Center
02:52PM 39.8739 -81.5467 255° West 294 338 13,300 -1,440 Descending Indianapolis Center
02:53PM 39.8544 -81.6464 256° West 287 330 11,900 -1,260 Descending Indianapolis Center
02:54PM 39.8292 -81.7683 255° West 290 334 10,700 -900 Descending Indianapolis Center
02:55PM 39.8069 -81.8853 256° West 292 336 10,000 -360 Descending Indianapolis Center
02:56PM 39.7892 -81.9711 255° West 291 335 10,000  Level Indianapolis Center
02:56PM 39.7983 -82.0092 287° West 298 343 10,000  Level Indianapolis Center
02:57PM 39.8219 -82.0692 297° West 301 346 10,000  Level Indianapolis Center
02:57PM 39.8339 -82.1069 292° West 301 346 10,000  Level Indianapolis Center
02:58PM 39.8683 -82.1911 298° West 291 335 10,000 -720 Level Indianapolis Center
02:59PM 39.8997 -82.2697 298° West 275 316 8,800 -1,320 Descending Indianapolis Center
02:59PM 39.9028 -82.2778 296° West 269 310 8,700 -1,860 Descending Indianapolis Center
03:00PM 39.9344 -82.3594 297° West 277 319 6,900 -1,980 Descending Indianapolis Center
03:00PM 39.9417 -82.3819 293° West 276 318 6,500 -1,560 Descending Indianapolis Center
03:01PM 39.9664 -82.4472 296° West 272 313 5,300 -1,560 Descending Indianapolis Center
03:01PM 39.9758 -82.4689 300° West 269 310 4,900 -720 Descending Indianapolis Center
03:02PM 39.9856 -82.5306 282° West 257 296 4,600 -480 Descending Indianapolis Center
03:03PM 39.9842 -82.5603 267° West 206 237 4,400 -600 Descending Indianapolis Center
03:03PM 39.9831 -82.5989 268° West 211 243 4,000 -420 Descending Indianapolis Center
03:04PM 39.9864 -82.6289 278° West 192 221 4,000  Level Indianapolis Center
03:04PM 39.9869 -82.6692 271° West 199 229 4,000 -420 Level Indianapolis Center
03:05PM 39.9906 -82.6978 279° West 186 214 3,600 -1,200 Descending Indianapolis Center
03:05PM 39.9931 -82.7500 274° West 192 221 2,800 -1,020 Descending Indianapolis Center
03:05PM 39.9936 -82.7531 283° West 184 212 2,800 -900 Level Indianapolis Center
03:06PM 39.9969 -82.8111 274° West 181 208 1,900 -840 Descending Indianapolis Center
03:07PM 39.9992 -82.8575 274° West 149 171 1,200 -720 Descending Indianapolis Center
03:08PM 40.0000 -82.8658 277° West 130 150 1,100 -1,200 Descending Indianapolis Center